Time;durP1;ratioP1;P1;durP2;ratioP2;P2;SDS_P1;SDS_P2;PMS_P1;PMS_P2;Temp;Humidity;BMP_temperature;BMP_pressure;BME280_temperature;BME280_humidity;BME280_pressure;Samples;Min_cycle;Max_cycle;Signal;HPM_P1;HPM_P2
2023/12/17 01:13:31;;;;;;;98.18;58.63;;;;;;;20.09;56.72;102659.78;21197334;27;20530;-41
2023/12/17 01:23:33;;;;;;;220.43;136.13;;;;;;;20.24;56.82;102673.84;20836257;28;20627;-39
2023/12/17 01:33:36;;;;;;;191.18;123.72;;;;;;;20.30;56.17;102667.00;20937965;28;20467;-46
2023/12/17 01:43:38;;;;;;;346.10;234.50;;;;;;;20.22;56.33;102676.13;20855372;28;20595;-49
2023/12/17 01:53:41;;;;;;;474.13;330.35;;;;;;;20.15;56.44;102679.25;20818030;28;20198;-45
2023/12/17 02:03:44;;;;;;;396.50;279.48;;;;;;;20.13;56.11;102689.97;20863913;28;20197;-47
2023/12/17 02:13:47;;;;;;;364.40;250.43;;;;;;;20.10;55.94;102679.28;20816926;28;20597;-47
2023/12/17 02:23:50;;;;;;;313.27;213.15;;;;;;;20.10;55.54;102672.78;20764069;28;20554;-40
2023/12/17 02:33:52;;;;;;;270.48;178.35;;;;;;;20.23;54.89;102667.34;20767934;28;20763;-40
2023/12/17 02:43:55;;;;;;;232.13;151.63;;;;;;;20.45;53.86;102661.31;20758161;28;20231;-48
2023/12/17 02:53:57;;;;;;;201.32;129.55;;;;;;;20.56;53.18;102654.44;20776497;28;20304;-41
2023/12/17 03:04:00;;;;;;;172.20;114.03;;;;;;;20.66;53.21;102654.38;20763140;28;20224;-40
2023/12/17 03:14:02;;;;;;;151.23;99.65;;;;;;;20.71;53.21;102652.66;20784229;28;20232;-46
2023/12/17 03:24:06;;;;;;;460.58;311.58;;;;;;;20.79;53.91;102646.34;20740061;28;20308;-49
2023/12/17 03:34:08;;;;;;;359.58;246.80;;;;;;;20.78;54.24;102627.69;20756337;28;20279;-44
2023/12/17 03:44:11;;;;;;;318.63;217.75;;;;;;;20.78;54.05;102617.22;20757442;28;20224;-48
2023/12/17 03:54:13;;;;;;;285.98;192.63;;;;;;;20.79;54.14;102609.56;20755422;28;20204;-43
2023/12/17 04:04:16;;;;;;;252.82;165.38;;;;;;;20.86;54.25;102610.09;20753345;28;20228;-43
2023/12/17 04:14:17;;;;;;;250.40;160.43;;;;;;;21.25;52.85;102593.88;20751388;28;20194;-43
2023/12/17 04:24:20;;;;;;;216.73;141.15;;;;;;;21.42;52.78;102598.25;20778442;28;20232;-48
2023/12/17 04:34:23;;;;;;;203.77;131.82;;;;;;;21.47;52.90;102589.69;20759538;28;20284;-42
2023/12/17 04:44:26;;;;;;;187.20;125.25;;;;;;;21.45;52.81;102574.97;20750644;28;20235;-47
2023/12/17 04:54:28;;;;;;;169.07;110.20;;;;;;;21.46;53.04;102565.31;20797430;28;20239;-43
2023/12/17 05:04:31;;;;;;;161.48;105.72;;;;;;;21.44;53.01;102574.13;20768901;28;20498;-43
2023/12/17 05:14:32;;;;;;;155.27;100.57;;;;;;;21.41;53.00;102568.22;20774178;28;20207;-42
2023/12/17 05:24:35;;;;;;;142.50;94.45;;;;;;;21.40;53.32;102556.06;20756773;28;20633;-42
2023/12/17 05:34:37;;;;;;;128.13;86.20;;;;;;;21.39;53.15;102558.03;20788580;28;20407;-49
2023/12/17 05:44:40;;;;;;;117.93;78.38;;;;;;;21.35;52.93;102542.78;20754678;28;20335;-47
2023/12/17 05:54:44;;;;;;;112.28;74.25;;;;;;;21.36;53.18;102555.81;20755037;28;20319;-50
2023/12/17 06:04:47;;;;;;;103.65;68.78;;;;;;;21.32;53.39;102560.38;20757019;28;20331;-43
2023/12/17 06:14:49;;;;;;;96.72;65.15;;;;;;;21.29;53.10;102560.16;20695761;28;20318;-40
2023/12/17 06:24:52;;;;;;;89.32;58.92;;;;;;;21.23;53.64;102565.03;20700251;28;20292;-44
2023/12/17 06:34:54;;;;;;;84.47;56.88;;;;;;;21.20;53.59;102568.44;20709664;28;20222;-48
2023/12/17 06:44:57;;;;;;;75.97;52.05;;;;;;;21.15;53.86;102591.13;20709038;28;20244;-41
2023/12/17 06:54:59;;;;;;;72.72;49.05;;;;;;;21.15;53.82;102604.44;20711378;28;20752;-47
2023/12/17 07:05:02;;;;;;;67.45;45.13;;;;;;;21.10;54.08;102602.50;20689317;28;21074;-43
2023/12/17 07:15:04;;;;;;;67.13;44.55;;;;;;;21.10;53.87;102596.84;20746546;28;20621;-46
2023/12/17 07:25:09;;;;;;;56.53;39.35;;;;;;;;;;20747337;28;20280;-46
2023/12/17 07:35:10;;;;;;;56.78;38.63;;;;;;;21.04;54.22;102598.00;20751871;28;20252;-42
2023/12/17 07:45:13;;;;;;;53.85;37.25;;;;;;;21.00;53.90;102603.44;20742854;28;20221;-48
2023/12/17 07:55:15;;;;;;;51.72;35.97;;;;;;;20.99;54.33;102603.75;20735386;28;20217;-46
2023/12/17 08:05:18;;;;;;;51.45;34.33;;;;;;;20.96;55.13;102601.50;20737389;28;20232;-42
2023/12/17 08:15:20;;;;;;;43.78;30.17;;;;;;;20.95;55.75;102603.47;20722296;28;20327;-43
2023/12/17 08:25:24;;;;;;;56.85;40.38;;;;;;;20.97;56.65;102608.84;20722541;28;20505;-51
2023/12/17 08:35:26;;;;;;;141.05;93.18;;;;;;;21.11;56.89;102598.53;20727792;28;20229;-48
2023/12/17 08:45:30;;;;;;;133.95;87.97;;;;;;;21.29;56.65;102594.94;20732476;28;20284;-50
2023/12/17 08:55:32;;;;;;;118.15;81.93;;;;;;;21.35;56.78;102605.09;20735983;28;20312;-47
2023/12/17 09:05:36;;;;;;;174.20;113.25;;;;;;;21.48;56.94;102585.69;20738866;28;20513;-55
2023/12/17 09:15:38;;;;;;;227.88;149.35;;;;;;;21.52;57.01;102583.97;20732761;28;20529;-47
2023/12/17 09:25:41;;;;;;;245.40;160.15;;;;;;;21.60;57.09;102594.63;20734747;28;20236;-50
2023/12/17 09:35:42;;;;;;;234.52;155.05;;;;;;;21.61;57.56;102590.66;20753878;28;20287;-41
2023/12/17 09:45:45;;;;;;;228.52;147.73;;;;;;;21.76;57.85;102581.97;20756149;28;20229;-42
2023/12/17 09:55:47;;;;;;;304.30;216.07;;;;;;;21.93;57.97;102585.16;20734646;28;20525;-41
2023/12/17 10:05:54;;;;;;;326.33;239.00;;;;;;;22.07;57.69;102576.78;20754575;28;20224;-43
2023/12/17 10:15:56;;;;;;;403.42;303.30;;;;;;;22.19;58.86;102559.28;20725169;28;20621;-47
2023/12/17 10:26:03;;;;;;;385.02;286.73;;;;;;;22.25;58.86;102543.88;20746678;28;20189;-47
2023/12/17 10:36:06;;;;;;;374.05;277.80;;;;;;;22.30;58.95;102523.94;20733959;28;20278;-41
2023/12/17 10:46:10;;;;;;;469.25;347.73;;;;;;;22.44;59.32;102517.19;20758419;28;20304;-42
2023/12/17 10:56:12;;;;;;;456.05;341.65;;;;;;;22.46;59.14;102511.16;20751307;28;20228;-50
2023/12/17 11:06:15;;;;;;;421.45;319.45;;;;;;;22.53;59.05;102505.97;20748780;28;20237;-41
2023/12/17 11:16:25;;;;;;;400.70;299.83;;;;;;;22.56;58.97;102499.66;20692306;28;20225;-41
2023/12/17 11:26:28;;;;;;;360.75;279.25;;;;;;;22.60;58.64;102494.19;20674405;28;20277;-40
2023/12/17 11:36:30;;;;;;;334.35;249.90;;;;;;;22.56;58.65;102494.00;20678941;28;20221;-48
2023/12/17 11:46:33;;;;;;;415.95;308.10;;;;;;;22.63;59.84;102483.06;20670657;28;20428;-41
2023/12/17 11:56:35;;;;;;;410.02;305.15;;;;;;;22.65;61.41;102480.75;20661756;28;20228;-46
2023/12/17 12:06:38;;;;;;;351.00;254.90;;;;;;;22.52;62.22;102470.22;20695715;28;20351;-40
2023/12/17 12:16:40;;;;;;;288.63;204.15;;;;;;;22.50;60.26;102458.31;20751382;28;21443;-42
2023/12/17 12:26:43;;;;;;;254.27;176.13;;;;;;;22.63;59.80;102442.50;20731564;28;20564;-41
2023/12/17 12:36:46;;;;;;;237.23;159.68;;;;;;;22.68;60.75;102431.91;20731380;28;20249;-51
2023/12/17 12:46:50;;;;;;;217.48;150.95;;;;;;;22.24;59.71;102414.53;20743920;28;20224;-41
2023/12/17 12:56:51;;;;;;;200.55;135.32;;;;;;;22.55;58.50;102412.84;20751573;28;20225;-44
2023/12/17 13:06:54;;;;;;;179.13;122.25;;;;;;;22.42;58.55;102396.63;20738018;28;20316;-40
2023/12/17 13:16:56;;;;;;;153.77;107.40;;;;;;;22.46;57.75;102406.19;20744432;28;20628;-46
2023/12/17 13:27:00;;;;;;;151.30;102.97;;;;;;;22.62;57.99;102390.56;20756031;28;20197;-47
2023/12/17 13:37:04;;;;;;;130.85;91.03;;;;;;;22.69;57.46;102385.31;20732073;28;20232;-40
2023/12/17 13:47:07;;;;;;;122.97;83.93;;;;;;;22.76;57.39;102374.41;20736585;28;20213;-43
2023/12/17 13:57:09;;;;;;;108.75;78.20;;;;;;;22.91;57.27;102353.38;20736259;28;20225;-48
2023/12/17 14:07:13;;;;;;;126.30;88.07;;;;;;;22.62;58.50;102356.50;20722659;28;20581;-48
2023/12/17 14:17:17;;;;;;;185.00;127.25;;;;;;;21.96;62.11;102337.84;20737093;28;20213;-41
2023/12/17 14:27:20;;;;;;;193.52;128.85;;;;;;;21.97;62.83;102333.88;20744874;28;20722;-51
2023/12/17 14:37:22;;;;;;;178.57;120.93;;;;;;;22.00;63.30;102319.13;20744471;28;20231;-54
2023/12/17 14:47:26;;;;;;;173.77;116.88;;;;;;;21.99;63.47;102308.91;20767978;28;20240;-52
2023/12/17 14:57:27;;;;;;;141.50;97.75;;;;;;;21.94;64.45;102311.81;20743899;28;20283;-48
2023/12/17 15:07:30;;;;;;;151.25;105.28;;;;;;;22.50;62.17;102304.25;20754735;28;20221;-43
2023/12/17 15:17:32;;;;;;;144.52;100.78;;;;;;;22.90;60.79;102294.06;20751582;28;20274;-50
2023/12/17 15:27:36;;;;;;;112.28;77.90;;;;;;;22.69;58.14;102308.69;20745796;28;20205;-53
2023/12/17 15:37:40;;;;;;;110.47;76.22;;;;;;;22.86;58.30;102293.03;20752545;28;20299;-55
2023/12/17 15:47:43;;;;;;;93.00;62.67;;;;;;;22.29;60.82;102301.00;20759963;28;20232;-51
2023/12/17 15:57:46;;;;;;;86.43;60.53;;;;;;;22.38;61.67;102290.59;20766395;28;20343;-45
2023/12/17 16:07:50;;;;;;;84.38;58.22;;;;;;;22.83;59.62;102277.50;20747243;28;20232;-41
2023/12/17 16:17:53;;;;;;;234.60;150.60;;;;;;;22.86;58.89;102276.81;20737319;28;20228;-42
2023/12/17 16:27:56;;;;;;;176.95;116.75;;;;;;;22.16;62.63;102277.13;20729631;28;20210;-52
2023/12/17 16:37:58;;;;;;;164.70;109.05;;;;;;;22.07;63.10;102271.34;20726614;28;20225;-50
2023/12/17 16:48:01;;;;;;;159.23;106.88;;;;;;;22.05;63.66;102267.16;20725966;28;20536;-51
2023/12/17 16:58:03;;;;;;;137.07;91.07;;;;;;;22.07;64.45;102274.16;20731676;28;20315;-51
2023/12/17 17:08:08;;;;;;;138.80;90.82;;;;;;;22.16;62.89;102276.28;20731698;28;20498;-52
2023/12/17 17:18:10;;;;;;;210.27;134.07;;;;;;;21.97;64.66;102277.16;20741501;28;20641;-40
2023/12/17 17:28:15;;;;;;;208.77;130.95;;;;;;;22.03;65.09;102287.31;20746197;28;20486;-41
2023/12/17 17:38:17;;;;;;;192.75;121.38;;;;;;;22.02;65.06;102279.94;20725249;28;20307;-53
2023/12/17 17:48:20;;;;;;;171.52;110.30;;;;;;;22.00;65.33;102284.25;20827614;28;20311;-48
2023/12/17 17:58:21;;;;;;;189.07;120.50;;;;;;;21.96;65.68;102289.66;20841163;28;20211;-52
2023/12/17 18:08:25;;;;;;;254.63;167.23;;;;;;;21.94;65.56;102282.66;20847830;28;20239;-53
2023/12/17 18:18:26;;;;;;;233.82;146.23;;;;;;;21.98;65.23;102284.53;20836855;28;20624;-41
2023/12/17 18:28:33;;;;;;;206.82;134.23;;;;;;;21.94;65.54;102272.13;20862304;28;20199;-52
2023/12/17 18:38:39;;;;;;;201.85;127.97;;;;;;;22.19;65.06;102262.34;20816232;28;20228;-49
2023/12/17 18:48:43;;;;;;;198.18;129.35;;;;;;;22.65;61.64;102250.03;20841134;28;20198;-51
2023/12/17 18:58:45;;;;;;;368.23;256.52;;;;;;;22.79;62.27;102246.03;20850702;28;20864;-46
2023/12/17 19:08:48;;;;;;;328.70;225.48;;;;;;;22.84;61.41;102224.38;20826649;28;20238;-53
2023/12/17 19:18:50;;;;;;;305.67;207.25;;;;;;;22.84;61.07;102216.72;20836045;28;20235;-51
2023/12/17 19:28:53;;;;;;;243.30;158.23;;;;;;;22.44;63.31;102221.25;20813919;28;20220;-53
2023/12/17 19:38:55;;;;;;;217.60;136.88;;;;;;;22.08;65.13;102193.63;20840913;28;20220;-41
2023/12/17 19:48:58;;;;;;;198.20;128.30;;;;;;;22.05;64.62;102199.94;20835091;28;20285;-51
2023/12/17 19:59:00;;;;;;;235.63;148.43;;;;;;;22.02;65.82;102183.56;20792215;28;20532;-51
2023/12/17 20:09:04;;;;;;;262.38;178.60;;;;;;;22.73;63.14;102190.50;20796685;28;20228;-46
2023/12/17 20:19:06;;;;;;;232.85;154.68;;;;;;;22.85;62.14;102172.13;20831209;28;20579;-50
2023/12/17 20:29:09;;;;;;;186.77;125.55;;;;;;;22.03;65.23;102167.38;20787936;28;20303;-48
2023/12/17 20:39:11;;;;;;;260.55;171.20;;;;;;;22.02;66.52;102160.88;20807371;28;20221;-48
2023/12/17 20:49:15;;;;;;;251.65;164.30;;;;;;;21.96;66.87;102176.25;20830822;28;20200;-41
2023/12/17 20:59:17;;;;;;;229.20;146.15;;;;;;;21.97;67.33;102183.59;20818550;28;20223;-53
2023/12/17 21:09:21;;;;;;;189.50;124.65;;;;;;;21.96;67.06;102173.41;20801523;28;20227;-48
2023/12/17 21:19:22;;;;;;;282.67;199.95;;;;;;;22.68;64.12;102170.78;20766515;28;20230;-42
2023/12/17 21:29:25;;;;;;;261.63;176.38;;;;;;;22.56;66.71;102179.00;20821450;28;20699;-54
2023/12/17 21:39:27;;;;;;;236.18;156.88;;;;;;;22.57;66.30;102169.34;20845322;28;20489;-53
2023/12/17 21:49:30;;;;;;;207.40;138.93;;;;;;;22.56;66.17;102166.81;20841442;28;20201;-51
2023/12/17 21:59:33;;;;;;;181.82;119.97;;;;;;;22.55;66.33;102170.81;20844104;28;20311;-45
2023/12/17 22:09:37;;;;;;;155.55;107.38;;;;;;;22.51;65.89;102173.44;20834596;28;20327;-47
2023/12/17 22:19:39;;;;;;;142.52;95.95;;;;;;;22.52;65.89;102175.09;20868033;28;20620;-48
2023/12/17 22:29:42;;;;;;;121.10;83.97;;;;;;;22.51;66.67;102162.06;20848986;28;20200;-47
2023/12/17 22:39:43;;;;;;;108.03;73.88;;;;;;;22.50;66.47;102149.03;20855047;28;20314;-44
2023/12/17 22:49:47;;;;;;;106.38;72.03;;;;;;;22.51;66.01;102167.75;20858759;28;20221;-43
2023/12/17 22:59:49;;;;;;;83.72;57.78;;;;;;;22.52;66.69;102186.47;20857503;28;20245;-44
2023/12/17 23:09:52;;;;;;;79.75;55.13;;;;;;;22.50;67.19;102170.91;20839900;28;20238;-44
2023/12/17 23:19:54;;;;;;;72.57;49.95;;;;;;;22.55;66.16;102185.84;20864687;28;20223;-41
2023/12/17 23:29:57;;;;;;;63.38;43.72;;;;;;;22.49;66.99;102175.75;20847320;28;20586;-41
2023/12/17 23:39:59;;;;;;;59.92;40.10;;;;;;;22.50;67.68;102166.06;20850234;28;20310;-50
2023/12/17 23:50:02;;;;;;;54.38;37.45;;;;;;;22.52;68.16;102171.44;20863256;28;20227;-50
